sensor_id;sensor_type;location;lat;lon;timestamp;P1;durP1;ratioP1;P2;durP2;ratioP2
52043;SDS011;38053;53.100;6.078;2022-08-19T00:01:08;9.77;;;6.00;;
52043;SDS011;38053;53.100;6.078;2022-08-19T00:03:34;10.25;;;6.63;;
52043;SDS011;38053;53.100;6.078;2022-08-19T00:06:00;9.45;;;6.70;;
52043;SDS011;38053;53.100;6.078;2022-08-19T00:08:25;9.57;;;6.88;;
52043;SDS011;38053;53.100;6.078;2022-08-19T00:10:51;11.20;;;7.13;;
52043;SDS011;38053;53.100;6.078;2022-08-19T00:13:17;8.82;;;6.60;;
52043;SDS011;38053;53.100;6.078;2022-08-19T00:15:43;9.38;;;6.28;;
52043;SDS011;38053;53.100;6.078;2022-08-19T00:18:09;11.32;;;6.57;;
52043;SDS011;38053;53.100;6.078;2022-08-19T00:20:35;10.38;;;6.80;;
52043;SDS011;38053;53.100;6.078;2022-08-19T00:23:05;8.82;;;5.63;;
52043;SDS011;38053;53.100;6.078;2022-08-19T00:25:31;9.50;;;6.22;;
52043;SDS011;38053;53.100;6.078;2022-08-19T00:27:58;8.40;;;6.28;;
52043;SDS011;38053;53.100;6.078;2022-08-19T00:30:24;11.98;;;6.25;;
52043;SDS011;38053;53.100;6.078;2022-08-19T00:32:53;9.60;;;6.65;;
52043;SDS011;38053;53.100;6.078;2022-08-19T00:35:20;9.80;;;6.88;;
52043;SDS011;38053;53.100;6.078;2022-08-19T00:37:49;9.07;;;6.55;;
52043;SDS011;38053;53.100;6.078;2022-08-19T00:40:15;8.95;;;6.47;;
52043;SDS011;38053;53.100;6.078;2022-08-19T00:42:42;10.88;;;6.97;;
52043;SDS011;38053;53.100;6.078;2022-08-19T00:45:20;10.45;;;6.95;;
52043;SDS011;38053;53.100;6.078;2022-08-19T00:47:48;9.45;;;6.82;;
52043;SDS011;38053;53.100;6.078;2022-08-19T00:50:14;9.77;;;7.10;;
52043;SDS011;38053;53.100;6.078;2022-08-19T00:52:43;12.05;;;6.50;;
52043;SDS011;38053;53.100;6.078;2022-08-19T00:55:19;11.23;;;7.00;;
52043;SDS011;38053;53.100;6.078;2022-08-19T00:57:55;11.63;;;7.15;;
52043;SDS011;38053;53.100;6.078;2022-08-19T01:00:26;11.60;;;6.90;;
52043;SDS011;38053;53.100;6.078;2022-08-19T01:02:52;11.63;;;7.13;;
52043;SDS011;38053;53.100;6.078;2022-08-19T01:05:25;12.65;;;6.90;;
52043;SDS011;38053;53.100;6.078;2022-08-19T01:07:54;9.50;;;6.70;;
52043;SDS011;38053;53.100;6.078;2022-08-19T01:10:24;9.57;;;7.13;;
52043;SDS011;38053;53.100;6.078;2022-08-19T01:12:53;15.02;;;7.30;;
52043;SDS011;38053;53.100;6.078;2022-08-19T01:15:24;15.45;;;8.15;;
52043;SDS011;38053;53.100;6.078;2022-08-19T01:17:56;12.77;;;7.53;;
52043;SDS011;38053;53.100;6.078;2022-08-19T01:20:24;13.63;;;7.13;;
52043;SDS011;38053;53.100;6.078;2022-08-19T01:22:54;9.90;;;6.80;;
52043;SDS011;38053;53.100;6.078;2022-08-19T01:25:24;9.32;;;7.57;;
52043;SDS011;38053;53.100;6.078;2022-08-19T01:27:54;11.55;;;6.93;;
52043;SDS011;38053;53.100;6.078;2022-08-19T01:30:31;13.43;;;7.60;;
52043;SDS011;38053;53.100;6.078;2022-08-19T01:32:59;13.65;;;7.40;;
52043;SDS011;38053;53.100;6.078;2022-08-19T01:35:26;13.57;;;8.93;;
52043;SDS011;38053;53.100;6.078;2022-08-19T01:37:55;14.23;;;7.65;;
52043;SDS011;38053;53.100;6.078;2022-08-19T01:40:29;12.95;;;8.75;;
52043;SDS011;38053;53.100;6.078;2022-08-19T01:42:56;11.32;;;8.00;;
52043;SDS011;38053;53.100;6.078;2022-08-19T01:45:23;13.80;;;9.00;;
52043;SDS011;38053;53.100;6.078;2022-08-19T01:47:50;10.38;;;7.75;;
52043;SDS011;38053;53.100;6.078;2022-08-19T01:50:17;13.07;;;7.90;;
52043;SDS011;38053;53.100;6.078;2022-08-19T01:52:43;10.18;;;7.57;;
52043;SDS011;38053;53.100;6.078;2022-08-19T01:55:11;10.57;;;7.50;;
52043;SDS011;38053;53.100;6.078;2022-08-19T01:57:39;12.27;;;7.32;;
52043;SDS011;38053;53.100;6.078;2022-08-19T02:00:09;13.10;;;8.45;;
52043;SDS011;38053;53.100;6.078;2022-08-19T02:02:37;13.80;;;8.65;;
52043;SDS011;38053;53.100;6.078;2022-08-19T02:05:03;12.25;;;8.45;;
52043;SDS011;38053;53.100;6.078;2022-08-19T02:07:29;17.17;;;8.82;;
52043;SDS011;38053;53.100;6.078;2022-08-19T02:09:55;12.70;;;8.80;;
52043;SDS011;38053;53.100;6.078;2022-08-19T02:12:21;11.13;;;7.50;;
52043;SDS011;38053;53.100;6.078;2022-08-19T02:14:47;11.48;;;8.13;;
52043;SDS011;38053;53.100;6.078;2022-08-19T02:17:12;12.27;;;8.48;;
52043;SDS011;38053;53.100;6.078;2022-08-19T02:19:38;11.45;;;7.65;;
52043;SDS011;38053;53.100;6.078;2022-08-19T02:22:04;15.60;;;9.27;;
52043;SDS011;38053;53.100;6.078;2022-08-19T02:24:30;10.40;;;7.63;;
52043;SDS011;38053;53.100;6.078;2022-08-19T02:26:56;13.63;;;7.47;;
52043;SDS011;38053;53.100;6.078;2022-08-19T02:29:22;11.07;;;7.63;;
52043;SDS011;38053;53.100;6.078;2022-08-19T02:31:48;10.88;;;8.05;;
52043;SDS011;38053;53.100;6.078;2022-08-19T02:34:13;14.70;;;8.50;;
52043;SDS011;38053;53.100;6.078;2022-08-19T02:36:39;13.35;;;8.63;;
52043;SDS011;38053;53.100;6.078;2022-08-19T02:39:05;14.80;;;7.93;;
52043;SDS011;38053;53.100;6.078;2022-08-19T02:41:31;12.07;;;8.73;;
52043;SDS011;38053;53.100;6.078;2022-08-19T02:43:59;16.65;;;8.23;;
52043;SDS011;38053;53.100;6.078;2022-08-19T02:46:30;13.80;;;8.18;;
52043;SDS011;38053;53.100;6.078;2022-08-19T02:48:59;11.65;;;6.93;;
52043;SDS011;38053;53.100;6.078;2022-08-19T02:53:55;14.35;;;7.32;;
52043;SDS011;38053;53.100;6.078;2022-08-19T02:56:21;10.75;;;7.40;;
52043;SDS011;38053;53.100;6.078;2022-08-19T02:58:49;11.82;;;7.40;;
52043;SDS011;38053;53.100;6.078;2022-08-19T03:01:23;10.98;;;7.90;;
52043;SDS011;38053;53.100;6.078;2022-08-19T03:03:52;13.13;;;7.70;;
52043;SDS011;38053;53.100;6.078;2022-08-19T03:06:18;10.50;;;7.50;;
52043;SDS011;38053;53.100;6.078;2022-08-19T03:08:45;12.23;;;7.75;;
52043;SDS011;38053;53.100;6.078;2022-08-19T03:11:16;14.00;;;8.52;;
52043;SDS011;38053;53.100;6.078;2022-08-19T03:13:50;12.10;;;7.95;;
52043;SDS011;38053;53.100;6.078;2022-08-19T03:16:17;13.13;;;7.88;;
52043;SDS011;38053;53.100;6.078;2022-08-19T03:18:43;10.75;;;8.10;;
52043;SDS011;38053;53.100;6.078;2022-08-19T03:21:14;11.25;;;7.32;;
52043;SDS011;38053;53.100;6.078;2022-08-19T03:23:44;11.18;;;7.60;;
52043;SDS011;38053;53.100;6.078;2022-08-19T03:26:10;12.07;;;8.43;;
52043;SDS011;38053;53.100;6.078;2022-08-19T03:28:36;14.82;;;8.15;;
52043;SDS011;38053;53.100;6.078;2022-08-19T03:31:03;19.05;;;8.93;;
52043;SDS011;38053;53.100;6.078;2022-08-19T03:33:31;14.07;;;8.07;;
52043;SDS011;38053;53.100;6.078;2022-08-19T03:36:01;11.82;;;8.32;;
52043;SDS011;38053;53.100;6.078;2022-08-19T03:38:29;11.95;;;7.78;;
52043;SDS011;38053;53.100;6.078;2022-08-19T03:40:55;11.63;;;7.88;;
52043;SDS011;38053;53.100;6.078;2022-08-19T03:43:20;14.35;;;9.35;;
52043;SDS011;38053;53.100;6.078;2022-08-19T03:45:46;14.70;;;8.63;;
52043;SDS011;38053;53.100;6.078;2022-08-19T03:48:14;12.27;;;8.05;;
52043;SDS011;38053;53.100;6.078;2022-08-19T03:50:41;14.82;;;7.78;;
52043;SDS011;38053;53.100;6.078;2022-08-19T03:53:07;12.77;;;8.60;;
52043;SDS011;38053;53.100;6.078;2022-08-19T03:55:34;13.50;;;8.15;;
52043;SDS011;38053;53.100;6.078;2022-08-19T03:58:05;10.45;;;8.05;;
52043;SDS011;38053;53.100;6.078;2022-08-19T04:00:31;11.10;;;8.18;;
52043;SDS011;38053;53.100;6.078;2022-08-19T04:02:58;15.13;;;8.80;;
52043;SDS011;38053;53.100;6.078;2022-08-19T04:05:24;12.55;;;8.23;;
52043;SDS011;38053;53.100;6.078;2022-08-19T04:07:53;14.23;;;8.07;;
52043;SDS011;38053;53.100;6.078;2022-08-19T04:10:20;14.25;;;7.75;;
52043;SDS011;38053;53.100;6.078;2022-08-19T04:12:45;12.40;;;8.40;;
52043;SDS011;38053;53.100;6.078;2022-08-19T04:15:11;12.57;;;8.07;;
52043;SDS011;38053;53.100;6.078;2022-08-19T04:17:36;11.20;;;7.60;;
52043;SDS011;38053;53.100;6.078;2022-08-19T04:20:03;14.32;;;8.80;;
52043;SDS011;38053;53.100;6.078;2022-08-19T04:22:29;16.92;;;8.27;;
52043;SDS011;38053;53.100;6.078;2022-08-19T04:24:55;14.05;;;8.35;;
52043;SDS011;38053;53.100;6.078;2022-08-19T04:27:20;15.05;;;9.18;;
52043;SDS011;38053;53.100;6.078;2022-08-19T04:29:46;11.07;;;7.65;;
52043;SDS011;38053;53.100;6.078;2022-08-19T04:32:12;15.40;;;9.05;;
52043;SDS011;38053;53.100;6.078;2022-08-19T04:34:40;12.20;;;8.95;;
52043;SDS011;38053;53.100;6.078;2022-08-19T04:37:07;17.75;;;10.45;;
52043;SDS011;38053;53.100;6.078;2022-08-19T04:39:37;16.23;;;8.43;;
52043;SDS011;38053;53.100;6.078;2022-08-19T04:42:22;14.95;;;9.55;;
52043;SDS011;38053;53.100;6.078;2022-08-19T04:45:07;18.02;;;9.38;;
52043;SDS011;38053;53.100;6.078;2022-08-19T04:47:39;14.90;;;8.75;;
52043;SDS011;38053;53.100;6.078;2022-08-19T04:52:33;16.17;;;8.68;;
52043;SDS011;38053;53.100;6.078;2022-08-19T04:54:59;15.23;;;7.80;;
52043;SDS011;38053;53.100;6.078;2022-08-19T04:57:25;12.50;;;9.05;;
52043;SDS011;38053;53.100;6.078;2022-08-19T04:59:54;14.43;;;9.32;;
52043;SDS011;38053;53.100;6.078;2022-08-19T05:02:22;16.25;;;9.18;;
52043;SDS011;38053;53.100;6.078;2022-08-19T05:04:55;14.27;;;9.85;;
52043;SDS011;38053;53.100;6.078;2022-08-19T05:07:22;16.20;;;10.07;;
52043;SDS011;38053;53.100;6.078;2022-08-19T05:09:47;14.93;;;9.68;;
52043;SDS011;38053;53.100;6.078;2022-08-19T05:12:13;14.20;;;9.77;;
52043;SDS011;38053;53.100;6.078;2022-08-19T05:14:39;24.67;;;11.45;;
52043;SDS011;38053;53.100;6.078;2022-08-19T05:17:04;13.15;;;8.85;;
52043;SDS011;38053;53.100;6.078;2022-08-19T05:19:30;18.33;;;9.88;;
52043;SDS011;38053;53.100;6.078;2022-08-19T05:22:14;18.65;;;11.38;;
52043;SDS011;38053;53.100;6.078;2022-08-19T05:25:07;20.50;;;11.63;;
52043;SDS011;38053;53.100;6.078;2022-08-19T05:27:37;16.33;;;10.80;;
52043;SDS011;38053;53.100;6.078;2022-08-19T05:30:04;21.52;;;10.95;;
52043;SDS011;38053;53.100;6.078;2022-08-19T05:32:30;17.35;;;11.00;;
52043;SDS011;38053;53.100;6.078;2022-08-19T05:34:56;15.80;;;10.38;;
52043;SDS011;38053;53.100;6.078;2022-08-19T05:37:22;17.55;;;11.82;;
52043;SDS011;38053;53.100;6.078;2022-08-19T05:39:48;18.75;;;12.10;;
52043;SDS011;38053;53.100;6.078;2022-08-19T05:42:14;15.02;;;10.93;;
52043;SDS011;38053;53.100;6.078;2022-08-19T05:44:41;18.27;;;11.27;;
52043;SDS011;38053;53.100;6.078;2022-08-19T05:47:09;17.98;;;10.07;;
52043;SDS011;38053;53.100;6.078;2022-08-19T05:49:36;17.15;;;11.32;;
52043;SDS011;38053;53.100;6.078;2022-08-19T05:52:07;17.17;;;11.10;;
52043;SDS011;38053;53.100;6.078;2022-08-19T05:54:36;18.48;;;10.52;;
52043;SDS011;38053;53.100;6.078;2022-08-19T05:57:05;15.85;;;10.88;;
52043;SDS011;38053;53.100;6.078;2022-08-19T05:59:31;18.23;;;11.05;;
52043;SDS011;38053;53.100;6.078;2022-08-19T06:02:00;16.73;;;11.93;;
52043;SDS011;38053;53.100;6.078;2022-08-19T06:04:27;17.33;;;11.35;;
52043;SDS011;38053;53.100;6.078;2022-08-19T06:06:53;16.92;;;10.77;;
52043;SDS011;38053;53.100;6.078;2022-08-19T06:09:20;17.77;;;11.20;;
52043;SDS011;38053;53.100;6.078;2022-08-19T06:11:47;16.67;;;10.38;;
52043;SDS011;38053;53.100;6.078;2022-08-19T06:14:18;22.95;;;11.98;;
52043;SDS011;38053;53.100;6.078;2022-08-19T06:16:47;17.15;;;12.48;;
52043;SDS011;38053;53.100;6.078;2022-08-19T06:19:16;14.07;;;9.95;;
52043;SDS011;38053;53.100;6.078;2022-08-19T06:21:45;20.00;;;11.85;;
52043;SDS011;38053;53.100;6.078;2022-08-19T06:24:13;16.83;;;12.07;;
52043;SDS011;38053;53.100;6.078;2022-08-19T06:26:45;21.10;;;12.43;;
52043;SDS011;38053;53.100;6.078;2022-08-19T06:29:13;17.38;;;10.57;;
52043;SDS011;38053;53.100;6.078;2022-08-19T06:31:42;17.50;;;10.70;;
52043;SDS011;38053;53.100;6.078;2022-08-19T06:34:09;19.23;;;12.40;;
52043;SDS011;38053;53.100;6.078;2022-08-19T06:36:36;18.40;;;11.13;;
52043;SDS011;38053;53.100;6.078;2022-08-19T06:41:34;23.70;;;12.70;;
52043;SDS011;38053;53.100;6.078;2022-08-19T06:44:01;20.85;;;12.32;;
52043;SDS011;38053;53.100;6.078;2022-08-19T06:46:28;19.98;;;12.52;;
52043;SDS011;38053;53.100;6.078;2022-08-19T06:48:53;17.73;;;14.00;;
52043;SDS011;38053;53.100;6.078;2022-08-19T06:51:21;15.98;;;12.73;;
52043;SDS011;38053;53.100;6.078;2022-08-19T06:53:49;21.27;;;12.73;;
52043;SDS011;38053;53.100;6.078;2022-08-19T06:56:17;17.33;;;11.73;;
52043;SDS011;38053;53.100;6.078;2022-08-19T06:58:44;19.80;;;13.75;;
52043;SDS011;38053;53.100;6.078;2022-08-19T07:01:11;18.00;;;12.73;;
52043;SDS011;38053;53.100;6.078;2022-08-19T07:03:38;17.10;;;12.52;;
52043;SDS011;38053;53.100;6.078;2022-08-19T07:06:08;19.48;;;13.55;;
52043;SDS011;38053;53.100;6.078;2022-08-19T07:08:37;18.02;;;13.20;;
52043;SDS011;38053;53.100;6.078;2022-08-19T07:11:10;17.70;;;12.60;;
52043;SDS011;38053;53.100;6.078;2022-08-19T07:13:38;15.95;;;12.48;;
52043;SDS011;38053;53.100;6.078;2022-08-19T07:16:08;15.98;;;12.60;;
52043;SDS011;38053;53.100;6.078;2022-08-19T07:18:36;17.08;;;13.07;;
52043;SDS011;38053;53.100;6.078;2022-08-19T07:21:35;16.23;;;13.00;;
52043;SDS011;38053;53.100;6.078;2022-08-19T07:23:54;17.58;;;13.18;;
52043;SDS011;38053;53.100;6.078;2022-08-19T07:26:29;16.33;;;12.75;;
52043;SDS011;38053;53.100;6.078;2022-08-19T07:28:57;18.30;;;11.75;;
52043;SDS011;38053;53.100;6.078;2022-08-19T07:31:25;16.67;;;12.35;;
52043;SDS011;38053;53.100;6.078;2022-08-19T07:33:52;14.88;;;11.77;;
52043;SDS011;38053;53.100;6.078;2022-08-19T07:36:23;20.00;;;13.82;;
52043;SDS011;38053;53.100;6.078;2022-08-19T07:38:57;19.70;;;13.35;;
52043;SDS011;38053;53.100;6.078;2022-08-19T07:41:25;15.70;;;13.00;;
52043;SDS011;38053;53.100;6.078;2022-08-19T07:43:53;17.85;;;13.18;;
52043;SDS011;38053;53.100;6.078;2022-08-19T07:46:20;17.63;;;13.13;;
52043;SDS011;38053;53.100;6.078;2022-08-19T07:48:46;16.70;;;13.70;;
52043;SDS011;38053;53.100;6.078;2022-08-19T07:51:15;20.63;;;14.80;;
52043;SDS011;38053;53.100;6.078;2022-08-19T07:53:43;16.83;;;13.68;;
52043;SDS011;38053;53.100;6.078;2022-08-19T07:56:11;19.17;;;12.98;;
52043;SDS011;38053;53.100;6.078;2022-08-19T07:58:39;17.42;;;13.25;;
52043;SDS011;38053;53.100;6.078;2022-08-19T08:01:07;22.45;;;14.55;;
52043;SDS011;38053;53.100;6.078;2022-08-19T08:03:35;21.70;;;14.65;;
52043;SDS011;38053;53.100;6.078;2022-08-19T08:06:20;23.55;;;16.40;;
52043;SDS011;38053;53.100;6.078;2022-08-19T08:09:04;18.90;;;15.68;;
52043;SDS011;38053;53.100;6.078;2022-08-19T08:11:37;20.02;;;16.70;;
52043;SDS011;38053;53.100;6.078;2022-08-19T08:14:05;21.27;;;15.70;;
52043;SDS011;38053;53.100;6.078;2022-08-19T08:16:40;21.58;;;15.82;;
52043;SDS011;38053;53.100;6.078;2022-08-19T08:19:07;18.67;;;15.35;;
52043;SDS011;38053;53.100;6.078;2022-08-19T08:21:33;19.25;;;16.40;;
52043;SDS011;38053;53.100;6.078;2022-08-19T08:23:59;22.05;;;16.02;;
52043;SDS011;38053;53.100;6.078;2022-08-19T08:26:25;20.48;;;16.65;;
52043;SDS011;38053;53.100;6.078;2022-08-19T08:28:52;17.98;;;16.08;;
52043;SDS011;38053;53.100;6.078;2022-08-19T08:31:18;19.92;;;16.45;;
52043;SDS011;38053;53.100;6.078;2022-08-19T08:33:44;21.13;;;16.55;;
52043;SDS011;38053;53.100;6.078;2022-08-19T08:36:11;19.50;;;16.15;;
52043;SDS011;38053;53.100;6.078;2022-08-19T08:38:39;22.23;;;18.33;;
52043;SDS011;38053;53.100;6.078;2022-08-19T08:41:10;23.80;;;17.85;;
52043;SDS011;38053;53.100;6.078;2022-08-19T08:43:44;19.52;;;17.27;;
52043;SDS011;38053;53.100;6.078;2022-08-19T08:46:55;19.60;;;15.60;;
52043;SDS011;38053;53.100;6.078;2022-08-19T08:49:43;22.77;;;16.95;;
52043;SDS011;38053;53.100;6.078;2022-08-19T08:55:00;23.63;;;18.55;;
52043;SDS011;38053;53.100;6.078;2022-08-19T09:00:02;19.90;;;16.57;;
52043;SDS011;38053;53.100;6.078;2022-08-19T09:02:34;20.52;;;16.27;;
52043;SDS011;38053;53.100;6.078;2022-08-19T09:04:59;18.65;;;16.70;;
52043;SDS011;38053;53.100;6.078;2022-08-19T09:07:29;20.65;;;16.67;;
52043;SDS011;38053;53.100;6.078;2022-08-19T09:10:17;19.88;;;17.60;;
52043;SDS011;38053;53.100;6.078;2022-08-19T09:13:00;19.02;;;16.77;;
52043;SDS011;38053;53.100;6.078;2022-08-19T09:15:56;24.35;;;19.33;;
52043;SDS011;38053;53.100;6.078;2022-08-19T09:18:38;20.77;;;18.38;;
52043;SDS011;38053;53.100;6.078;2022-08-19T09:21:06;18.45;;;16.42;;
52043;SDS011;38053;53.100;6.078;2022-08-19T09:23:34;23.40;;;16.88;;
52043;SDS011;38053;53.100;6.078;2022-08-19T09:26:00;21.02;;;18.02;;
52043;SDS011;38053;53.100;6.078;2022-08-19T09:28:26;20.08;;;17.23;;
52043;SDS011;38053;53.100;6.078;2022-08-19T09:30:53;24.08;;;18.75;;
52043;SDS011;38053;53.100;6.078;2022-08-19T09:33:19;20.60;;;17.85;;
52043;SDS011;38053;53.100;6.078;2022-08-19T09:35:44;18.98;;;16.35;;
52043;SDS011;38053;53.100;6.078;2022-08-19T09:38:11;23.02;;;18.08;;
52043;SDS011;38053;53.100;6.078;2022-08-19T09:40:36;20.02;;;17.83;;
52043;SDS011;38053;53.100;6.078;2022-08-19T09:43:03;21.65;;;16.33;;
52043;SDS011;38053;53.100;6.078;2022-08-19T09:45:30;18.48;;;15.02;;
52043;SDS011;38053;53.100;6.078;2022-08-19T09:47:56;18.83;;;15.68;;
52043;SDS011;38053;53.100;6.078;2022-08-19T09:50:22;19.08;;;16.00;;
52043;SDS011;38053;53.100;6.078;2022-08-19T09:52:48;19.80;;;15.00;;
52043;SDS011;38053;53.100;6.078;2022-08-19T09:55:14;19.80;;;16.85;;
52043;SDS011;38053;53.100;6.078;2022-08-19T09:57:41;23.15;;;16.50;;
52043;SDS011;38053;53.100;6.078;2022-08-19T10:00:07;19.20;;;12.63;;
52043;SDS011;38053;53.100;6.078;2022-08-19T10:02:34;15.70;;;11.88;;
52043;SDS011;38053;53.100;6.078;2022-08-19T10:05:00;15.90;;;11.65;;
52043;SDS011;38053;53.100;6.078;2022-08-19T10:07:45;14.13;;;9.60;;
52043;SDS011;38053;53.100;6.078;2022-08-19T10:10:10;17.15;;;10.70;;
52043;SDS011;38053;53.100;6.078;2022-08-19T10:12:36;15.57;;;10.55;;
52043;SDS011;38053;53.100;6.078;2022-08-19T10:15:03;12.00;;;9.50;;
52043;SDS011;38053;53.100;6.078;2022-08-19T10:17:31;14.55;;;9.63;;
52043;SDS011;38053;53.100;6.078;2022-08-19T10:19:58;15.07;;;10.15;;
52043;SDS011;38053;53.100;6.078;2022-08-19T10:22:24;18.52;;;9.80;;
52043;SDS011;38053;53.100;6.078;2022-08-19T10:24:50;12.48;;;8.82;;
52043;SDS011;38053;53.100;6.078;2022-08-19T10:27:16;13.70;;;7.85;;
52043;SDS011;38053;53.100;6.078;2022-08-19T10:29:42;17.00;;;12.05;;
52043;SDS011;38053;53.100;6.078;2022-08-19T10:32:08;17.92;;;10.23;;
52043;SDS011;38053;53.100;6.078;2022-08-19T10:34:35;13.13;;;10.18;;
52043;SDS011;38053;53.100;6.078;2022-08-19T10:37:03;18.42;;;11.48;;
52043;SDS011;38053;53.100;6.078;2022-08-19T10:39:34;15.48;;;10.65;;
52043;SDS011;38053;53.100;6.078;2022-08-19T10:42:05;15.80;;;9.60;;
52043;SDS011;38053;53.100;6.078;2022-08-19T10:46:57;15.70;;;10.57;;
52043;SDS011;38053;53.100;6.078;2022-08-19T10:49:23;13.85;;;8.82;;
52043;SDS011;38053;53.100;6.078;2022-08-19T10:51:49;13.77;;;9.25;;
52043;SDS011;38053;53.100;6.078;2022-08-19T10:54:33;16.88;;;9.13;;
52043;SDS011;38053;53.100;6.078;2022-08-19T10:57:18;14.90;;;9.43;;
52043;SDS011;38053;53.100;6.078;2022-08-19T10:59:44;14.05;;;8.20;;
52043;SDS011;38053;53.100;6.078;2022-08-19T11:02:10;13.23;;;8.32;;
52043;SDS011;38053;53.100;6.078;2022-08-19T11:04:37;12.32;;;8.13;;
52043;SDS011;38053;53.100;6.078;2022-08-19T11:07:04;18.45;;;8.13;;
52043;SDS011;38053;53.100;6.078;2022-08-19T11:09:30;12.57;;;8.80;;
52043;SDS011;38053;53.100;6.078;2022-08-19T11:11:56;14.07;;;8.68;;
52043;SDS011;38053;53.100;6.078;2022-08-19T11:14:22;13.77;;;8.85;;
52043;SDS011;38053;53.100;6.078;2022-08-19T11:16:51;12.30;;;9.07;;
52043;SDS011;38053;53.100;6.078;2022-08-19T11:19:20;14.15;;;9.90;;
52043;SDS011;38053;53.100;6.078;2022-08-19T11:21:49;15.43;;;9.05;;
52043;SDS011;38053;53.100;6.078;2022-08-19T11:24:16;14.50;;;10.05;;
52043;SDS011;38053;53.100;6.078;2022-08-19T11:26:48;21.05;;;10.68;;
52043;SDS011;38053;53.100;6.078;2022-08-19T11:29:16;14.32;;;11.23;;
52043;SDS011;38053;53.100;6.078;2022-08-19T11:31:44;14.20;;;10.75;;
52043;SDS011;38053;53.100;6.078;2022-08-19T11:34:13;16.83;;;9.75;;
52043;SDS011;38053;53.100;6.078;2022-08-19T11:36:51;16.63;;;10.23;;
52043;SDS011;38053;53.100;6.078;2022-08-19T11:39:18;18.10;;;12.07;;
52043;SDS011;38053;53.100;6.078;2022-08-19T11:41:45;17.05;;;12.57;;
52043;SDS011;38053;53.100;6.078;2022-08-19T11:44:12;17.98;;;12.75;;
52043;SDS011;38053;53.100;6.078;2022-08-19T11:46:39;16.90;;;13.07;;
52043;SDS011;38053;53.100;6.078;2022-08-19T11:49:10;22.23;;;15.30;;
52043;SDS011;38053;53.100;6.078;2022-08-19T11:51:36;21.65;;;14.90;;
52043;SDS011;38053;53.100;6.078;2022-08-19T11:54:03;18.27;;;12.50;;
52043;SDS011;38053;53.100;6.078;2022-08-19T11:56:30;19.60;;;14.52;;
52043;SDS011;38053;53.100;6.078;2022-08-19T11:58:56;19.70;;;13.50;;
52043;SDS011;38053;53.100;6.078;2022-08-19T12:01:22;21.02;;;14.73;;
52043;SDS011;38053;53.100;6.078;2022-08-19T12:03:50;18.52;;;14.35;;
52043;SDS011;38053;53.100;6.078;2022-08-19T12:06:18;22.45;;;14.18;;
52043;SDS011;38053;53.100;6.078;2022-08-19T12:08:48;23.50;;;15.23;;
52043;SDS011;38053;53.100;6.078;2022-08-19T12:11:14;24.58;;;14.95;;
52043;SDS011;38053;53.100;6.078;2022-08-19T12:13:40;25.42;;;14.07;;
52043;SDS011;38053;53.100;6.078;2022-08-19T12:16:11;23.50;;;17.10;;
52043;SDS011;38053;53.100;6.078;2022-08-19T12:18:49;21.13;;;14.13;;
52043;SDS011;38053;53.100;6.078;2022-08-19T12:21:17;21.60;;;14.98;;
52043;SDS011;38053;53.100;6.078;2022-08-19T12:23:47;22.85;;;15.30;;
52043;SDS011;38053;53.100;6.078;2022-08-19T12:26:14;18.92;;;12.30;;
52043;SDS011;38053;53.100;6.078;2022-08-19T12:28:41;21.70;;;16.45;;
52043;SDS011;38053;53.100;6.078;2022-08-19T12:31:08;18.00;;;14.43;;
52043;SDS011;38053;53.100;6.078;2022-08-19T12:33:36;32.45;;;14.13;;
52043;SDS011;38053;53.100;6.078;2022-08-19T12:36:03;18.15;;;13.63;;
52043;SDS011;38053;53.100;6.078;2022-08-19T12:38:31;16.38;;;11.30;;
52043;SDS011;38053;53.100;6.078;2022-08-19T12:40:57;19.77;;;12.35;;
52043;SDS011;38053;53.100;6.078;2022-08-19T12:43:23;20.08;;;11.70;;
52043;SDS011;38053;53.100;6.078;2022-08-19T12:45:49;19.75;;;12.27;;
52043;SDS011;38053;53.100;6.078;2022-08-19T12:48:15;15.05;;;11.25;;
52043;SDS011;38053;53.100;6.078;2022-08-19T12:50:42;19.45;;;12.82;;
52043;SDS011;38053;53.100;6.078;2022-08-19T12:53:10;23.50;;;15.52;;
52043;SDS011;38053;53.100;6.078;2022-08-19T12:55:36;30.48;;;16.33;;
52043;SDS011;38053;53.100;6.078;2022-08-19T12:58:02;23.02;;;17.95;;
52043;SDS011;38053;53.100;6.078;2022-08-19T13:00:28;30.20;;;16.33;;
52043;SDS011;38053;53.100;6.078;2022-08-19T13:02:55;24.55;;;16.27;;
52043;SDS011;38053;53.100;6.078;2022-08-19T13:05:29;24.30;;;16.60;;
52043;SDS011;38053;53.100;6.078;2022-08-19T13:07:57;20.15;;;15.90;;
52043;SDS011;38053;53.100;6.078;2022-08-19T13:10:25;23.17;;;15.93;;
52043;SDS011;38053;53.100;6.078;2022-08-19T13:12:53;22.27;;;15.68;;
52043;SDS011;38053;53.100;6.078;2022-08-19T13:15:20;16.80;;;13.02;;
52043;SDS011;38053;53.100;6.078;2022-08-19T13:17:48;14.05;;;10.80;;
52043;SDS011;38053;53.100;6.078;2022-08-19T13:20:16;15.25;;;10.77;;
52043;SDS011;38053;53.100;6.078;2022-08-19T13:22:44;15.27;;;10.50;;
52043;SDS011;38053;53.100;6.078;2022-08-19T13:25:10;16.63;;;10.65;;
52043;SDS011;38053;53.100;6.078;2022-08-19T13:27:36;15.27;;;11.10;;
52043;SDS011;38053;53.100;6.078;2022-08-19T13:30:03;15.48;;;10.40;;
52043;SDS011;38053;53.100;6.078;2022-08-19T13:32:48;15.15;;;10.30;;
52043;SDS011;38053;53.100;6.078;2022-08-19T13:35:33;13.85;;;8.02;;
52043;SDS011;38053;53.100;6.078;2022-08-19T13:37:58;11.98;;;8.30;;
52043;SDS011;38053;53.100;6.078;2022-08-19T13:40:30;10.23;;;5.75;;
52043;SDS011;38053;53.100;6.078;2022-08-19T13:42:59;12.38;;;6.25;;
52043;SDS011;38053;53.100;6.078;2022-08-19T13:45:26;10.00;;;6.00;;
52043;SDS011;38053;53.100;6.078;2022-08-19T13:47:54;14.07;;;7.80;;
52043;SDS011;38053;53.100;6.078;2022-08-19T13:50:23;19.40;;;8.35;;
52043;SDS011;38053;53.100;6.078;2022-08-19T13:52:52;16.75;;;8.40;;
52043;SDS011;38053;53.100;6.078;2022-08-19T13:55:19;12.10;;;7.88;;
52043;SDS011;38053;53.100;6.078;2022-08-19T13:57:46;8.98;;;5.63;;
52043;SDS011;38053;53.100;6.078;2022-08-19T14:00:17;6.63;;;4.38;;
52043;SDS011;38053;53.100;6.078;2022-08-19T14:02:44;6.13;;;4.30;;
52043;SDS011;38053;53.100;6.078;2022-08-19T14:05:12;7.22;;;4.03;;
52043;SDS011;38053;53.100;6.078;2022-08-19T14:07:40;7.38;;;3.72;;
52043;SDS011;38053;53.100;6.078;2022-08-19T14:10:07;5.53;;;3.83;;
52043;SDS011;38053;53.100;6.078;2022-08-19T14:12:35;7.17;;;3.83;;
52043;SDS011;38053;53.100;6.078;2022-08-19T14:15:02;7.30;;;4.70;;
52043;SDS011;38053;53.100;6.078;2022-08-19T14:17:29;10.55;;;5.97;;
52043;SDS011;38053;53.100;6.078;2022-08-19T14:19:58;9.45;;;5.35;;
52043;SDS011;38053;53.100;6.078;2022-08-19T14:22:25;9.65;;;5.45;;
52043;SDS011;38053;53.100;6.078;2022-08-19T14:24:52;7.47;;;5.45;;
52043;SDS011;38053;53.100;6.078;2022-08-19T14:27:17;8.70;;;6.18;;
52043;SDS011;38053;53.100;6.078;2022-08-19T14:29:43;9.52;;;6.30;;
52043;SDS011;38053;53.100;6.078;2022-08-19T14:32:09;8.15;;;5.65;;
52043;SDS011;38053;53.100;6.078;2022-08-19T14:34:35;8.15;;;6.20;;
52043;SDS011;38053;53.100;6.078;2022-08-19T14:37:02;8.70;;;5.93;;
52043;SDS011;38053;53.100;6.078;2022-08-19T14:39:28;9.45;;;5.65;;
52043;SDS011;38053;53.100;6.078;2022-08-19T14:41:53;10.02;;;6.47;;
52043;SDS011;38053;53.100;6.078;2022-08-19T14:44:19;11.20;;;7.70;;
52043;SDS011;38053;53.100;6.078;2022-08-19T14:46:45;10.10;;;7.93;;
52043;SDS011;38053;53.100;6.078;2022-08-19T14:49:10;25.77;;;9.57;;
52043;SDS011;38053;53.100;6.078;2022-08-19T14:51:37;13.13;;;8.38;;